createdAt,value
2019-05-02T00:01:42.176Z,100720.49
2019-05-02T00:04:45.973Z,100719.61
2019-05-02T00:07:53.765Z,100715.16
2019-05-02T00:10:55.121Z,100719.16
2019-05-02T00:13:59.328Z,100712.14
2019-05-02T00:17:03.126Z,100708.10
2019-05-02T00:20:08.599Z,100713.12
2019-05-02T00:23:12.844Z,100707.06
2019-05-02T00:26:16.599Z,100705.73
2019-05-02T00:29:23.826Z,100699.52
2019-05-02T00:32:25.950Z,100693.00
2019-05-02T00:35:29.687Z,100687.80
2019-05-02T00:38:38.252Z,100681.93
2019-05-02T00:41:40.451Z,100686.56
2019-05-02T00:44:47.045Z,100675.89
2019-05-02T00:47:56.456Z,100670.52
2019-05-02T00:51:00.391Z,100669.14
2019-05-02T00:54:04.253Z,100663.47
2019-05-02T00:57:07.947Z,100662.77
2019-05-02T01:00:13.497Z,100652.66
2019-05-02T01:03:18.012Z,100656.06
2019-05-02T01:06:21.928Z,100644.77
2019-05-02T01:09:25.614Z,100646.49
2019-05-02T01:12:29.370Z,100634.91
2019-05-02T01:15:33.046Z,100636.97
2019-05-02T01:18:37.152Z,100637.09
2019-05-02T01:21:42.237Z,100630.60
2019-05-02T01:24:45.892Z,100630.78
2019-05-02T01:28:17.271Z,100626.80
2019-05-02T01:31:24.318Z,100618.69
2019-05-02T01:34:56.411Z,100620.20
2019-05-02T01:38:19.181Z,100613.98
2019-05-02T01:41:23.950Z,100619.58
2019-05-02T01:44:31.141Z,100611.49
2019-05-02T01:47:34.347Z,100608.84
2019-05-02T01:50:39.123Z,100598.61
2019-05-02T01:53:43.235Z,100600.21
2019-05-02T01:56:47.251Z,100594.53
2019-05-02T01:59:50.938Z,100592.48
2019-05-02T02:02:54.891Z,100580.48
2019-05-02T02:05:58.565Z,100582.06
2019-05-02T02:09:03.373Z,100580.35
2019-05-02T02:12:09.752Z,100580.35
2019-05-02T02:15:14.759Z,100582.03
2019-05-02T02:18:22.139Z,100570.69
2019-05-02T02:21:46.958Z,100573.63
2019-05-02T02:25:09.686Z,100562.89
2019-05-02T02:28:13.384Z,100555.86
2019-05-02T02:31:19.773Z,100555.59
2019-05-02T02:34:28.881Z,100556.48
2019-05-02T02:37:32.272Z,100555.05
2019-05-02T02:40:35.994Z,100548.38
2019-05-02T02:43:39.967Z,100546.83
2019-05-02T02:46:45.046Z,100543.31
2019-05-02T02:49:48.737Z,100534.83
2019-05-02T02:52:52.894Z,100536.02
2019-05-02T02:56:02.058Z,100524.97
2019-05-02T02:59:02.132Z,100521.70
2019-05-02T03:02:10.128Z,100508.67
2019-05-02T03:05:11.526Z,100516.61
2019-05-02T03:08:15.287Z,100509.27
2019-05-02T03:11:23.820Z,100511.58
2019-05-02T03:14:29.576Z,100510.66
2019-05-02T03:17:33.272Z,100508.37
2019-05-02T03:20:40.647Z,100501.46
2019-05-02T03:23:42.605Z,100494.13
2019-05-02T03:26:48.607Z,100484.87
2019-05-02T03:29:53.128Z,100491.28
2019-05-02T03:33:06.452Z,100485.27
2019-05-02T03:36:02.303Z,100483.80
2019-05-02T03:39:14.845Z,100478.33
2019-05-02T03:42:13.047Z,100471.55
2019-05-02T03:45:16.722Z,100470.67
2019-05-02T03:48:25.557Z,100463.47
2019-05-02T03:51:26.269Z,100465.77
2019-05-02T03:54:30.890Z,100462.34
2019-05-02T03:57:36.149Z,100458.77
2019-05-02T04:00:39.936Z,100464.30
2019-05-02T04:03:43.961Z,100453.91
2019-05-02T04:06:47.785Z,100456.52
2019-05-02T04:09:51.855Z,100449.12
2019-05-02T04:12:58.480Z,100451.89
2019-05-02T04:16:02.372Z,100443.50
2019-05-02T04:19:06.388Z,100440.60
2019-05-02T04:22:12.056Z,100442.25
2019-05-02T04:25:16.036Z,100445.79
2019-05-02T04:28:21.772Z,100452.73
2019-05-02T04:31:31.384Z,100451.27
2019-05-02T04:34:31.303Z,100451.41
2019-05-02T04:37:41.272Z,100449.62
2019-05-02T04:40:44.906Z,100455.41
2019-05-02T04:43:54.707Z,100447.61
2019-05-02T04:46:51.545Z,100450.06
2019-05-02T04:49:55.250Z,100449.26
2019-05-02T04:52:59.346Z,100450.27
2019-05-02T04:56:06.898Z,100451.48
2019-05-02T04:59:17.616Z,100443.23
2019-05-02T05:02:14.280Z,100449.26
2019-05-02T05:05:25.708Z,100444.72
2019-05-02T05:08:26.425Z,100448.39
2019-05-02T05:11:29.122Z,100447.86
2019-05-02T05:14:39.194Z,100442.35
2019-05-02T05:17:38.858Z,100443.89
2019-05-02T05:20:46.053Z,100442.65
2019-05-02T05:24:10.185Z,100436.77
2019-05-02T05:27:18.825Z,100443.25
2019-05-02T05:30:19.517Z,100444.57
2019-05-02T05:33:23.313Z,100439.27
2019-05-02T05:36:32.518Z,100446.25
2019-05-02T05:39:33.062Z,100448.11
2019-05-02T05:42:37.918Z,100448.48
2019-05-02T05:45:51.198Z,100448.08
2019-05-02T05:48:47.690Z,100440.32
2019-05-02T05:51:54.278Z,100436.16
2019-05-02T05:54:57.893Z,100435.38
2019-05-02T05:58:12.299Z,100443.27
2019-05-02T06:01:10.136Z,100435.16
2019-05-02T06:04:13.867Z,100440.47
2019-05-02T06:07:20.033Z,100441.05
2019-05-02T06:10:23.770Z,100431.86
2019-05-02T06:13:27.455Z,100435.97
2019-05-02T06:16:31.148Z,100433.59
2019-05-02T06:19:34.842Z,100429.34
2019-05-02T06:22:38.724Z,100431.86
2019-05-02T06:25:42.939Z,100435.72
2019-05-02T06:28:46.671Z,100423.64
2019-05-02T06:31:50.438Z,100424.50
2019-05-02T06:34:54.125Z,100430.80
2019-05-02T06:37:57.809Z,100429.41
2019-05-02T06:41:01.506Z,100429.53
2019-05-02T06:44:05.266Z,100427.15
2019-05-02T06:47:08.965Z,100427.47
2019-05-02T06:50:13.760Z,100424.97
2019-05-02T06:53:17.519Z,100421.66
2019-05-02T06:56:21.602Z,100421.77
2019-05-02T06:59:25.690Z,100423.95
2019-05-02T07:02:33.666Z,100416.28
2019-05-02T07:05:34.883Z,100420.45
2019-05-02T07:08:38.563Z,100419.13
2019-05-02T07:11:42.612Z,100416.86
2019-05-02T07:14:46.300Z,100416.35
2019-05-02T07:17:50.013Z,100421.19
2019-05-02T07:20:53.780Z,100428.13
2019-05-02T07:23:57.462Z,100428.39
2019-05-02T07:27:02.387Z,100423.37
2019-05-02T07:30:08.462Z,100427.50
2019-05-02T07:33:12.252Z,100416.47
2019-05-02T07:36:16.045Z,100426.17
2019-05-02T07:39:20.029Z,100424.11
2019-05-02T07:42:24.052Z,100425.09
2019-05-02T07:45:27.768Z,100424.70
2019-05-02T07:48:31.502Z,100430.92
2019-05-02T07:51:35.629Z,100422.63
2019-05-02T07:54:39.335Z,100433.73
2019-05-02T07:57:43.110Z,100419.59
2019-05-02T08:00:46.832Z,100422.70
2019-05-02T08:03:50.553Z,100422.98
2019-05-02T08:06:54.256Z,100416.46
2019-05-02T08:09:58.009Z,100419.08
2019-05-02T08:13:01.796Z,100417.86
2019-05-02T08:16:05.670Z,100415.94
2019-05-02T08:19:09.406Z,100414.64
2019-05-02T08:22:14.800Z,100409.16
2019-05-02T08:25:19.274Z,100413.23
2019-05-02T08:28:28.629Z,100421.46
2019-05-02T08:31:32.720Z,100417.02
2019-05-02T08:34:36.445Z,100420.64
2019-05-02T08:37:41.443Z,100422.12
2019-05-02T08:40:47.723Z,100421.66
2019-05-02T08:43:51.422Z,100422.16
2019-05-02T08:46:55.426Z,100420.45
2019-05-02T08:49:59.172Z,100423.25
2019-05-02T08:53:02.909Z,100416.74
2019-05-02T08:56:06.709Z,100425.20
2019-05-02T08:59:10.449Z,100417.21
2019-05-02T09:02:14.483Z,100422.55
2019-05-02T09:05:18.669Z,100419.78
2019-05-02T09:08:22.396Z,100422.44
2019-05-02T09:11:26.119Z,100424.84
2019-05-02T09:14:29.840Z,100424.70
2019-05-02T09:17:38.397Z,100430.54
2019-05-02T09:20:39.533Z,100429.33
2019-05-02T09:23:43.995Z,100433.30
2019-05-02T09:26:47.883Z,100426.80
2019-05-02T09:29:51.952Z,100424.11
2019-05-02T09:32:57.047Z,100422.44
2019-05-02T09:36:02.357Z,100422.12
2019-05-02T09:39:07.508Z,100429.61
2019-05-02T09:42:15.188Z,100426.29
2019-05-02T09:45:22.769Z,100425.78
2019-05-02T09:48:27.074Z,100418.07
2019-05-02T09:51:32.472Z,100414.88
2019-05-02T09:54:37.109Z,100414.48
2019-05-02T09:57:42.883Z,100411.72
2019-05-02T10:01:02.425Z,100401.78
2019-05-02T10:04:06.628Z,100397.60
2019-05-02T10:07:12.107Z,100402.80
2019-05-02T10:10:16.941Z,100410.39
2019-05-02T10:13:22.703Z,100402.08
2019-05-02T10:16:27.445Z,100397.27
2019-05-02T10:19:32.699Z,100384.28
2019-05-02T10:22:39.346Z,100391.97
2019-05-02T10:25:46.756Z,100386.28
2019-05-02T10:28:50.334Z,100383.70
2019-05-02T10:31:54.008Z,100383.34
2019-05-02T10:34:57.711Z,100379.83
2019-05-02T10:38:02.506Z,100376.96
2019-05-02T10:41:06.856Z,100382.02
2019-05-02T10:44:12.747Z,100371.66
2019-05-02T10:47:16.130Z,100367.14
2019-05-02T10:50:24.708Z,100364.78
2019-05-02T10:53:28.446Z,100360.92
2019-05-02T10:56:32.499Z,100349.89
2019-05-02T10:59:36.662Z,100357.28
2019-05-02T11:02:57.645Z,100347.93
2019-05-02T11:06:07.422Z,100343.09
2019-05-02T11:09:12.037Z,100335.91
2019-05-02T11:12:25.504Z,100340.19
2019-05-02T11:15:46.883Z,100332.70
2019-05-02T11:19:02.827Z,100330.44
2019-05-02T11:22:06.616Z,100334.14
2019-05-02T11:25:12.080Z,100339.06
2019-05-02T11:28:16.029Z,100330.38
2019-05-02T11:31:21.693Z,100326.79
2019-05-02T11:34:25.432Z,100324.83
2019-05-02T11:37:29.140Z,100327.11
2019-05-02T11:40:32.949Z,100324.63
2019-05-02T11:43:42.409Z,100318.31
2019-05-02T11:46:46.835Z,100326.64
2019-05-02T11:49:53.935Z,100320.41
2019-05-02T11:52:53.985Z,100316.97
2019-05-02T11:55:58.370Z,100322.13
2019-05-02T11:59:03.158Z,100307.61
2019-05-02T12:02:19.070Z,100315.41
2019-05-02T12:05:26.550Z,100312.00
2019-05-02T12:08:31.816Z,100311.44
2019-05-02T12:11:35.066Z,100305.95
2019-05-02T12:14:38.888Z,100303.40
2019-05-02T12:17:42.634Z,100296.27
2019-05-02T12:20:46.776Z,100299.26
2019-05-02T12:23:52.602Z,100290.63
2019-05-02T12:26:56.027Z,100281.10
2019-05-02T12:29:59.767Z,100278.26
2019-05-02T12:33:03.599Z,100279.05
2019-05-02T12:36:11.942Z,100279.95
2019-05-02T12:39:16.062Z,100282.47
2019-05-02T12:42:20.158Z,100292.30
2019-05-02T12:45:24.562Z,100288.55
2019-05-02T12:48:28.429Z,100286.16
2019-05-02T12:51:32.264Z,100285.05
2019-05-02T12:54:35.955Z,100274.41
2019-05-02T12:57:39.713Z,100277.67
2019-05-02T13:00:43.626Z,100274.81
2019-05-02T13:03:56.443Z,100263.77
2019-05-02T13:07:02.035Z,100267.88
2019-05-02T13:10:06.366Z,100267.78
2019-05-02T13:13:12.279Z,100259.81
2019-05-02T13:16:16.154Z,100263.52
2019-05-02T13:19:23.669Z,100252.97
2019-05-02T13:22:52.682Z,100259.84
2019-05-02T13:25:56.605Z,100252.02
2019-05-02T13:29:02.367Z,100243.53
2019-05-02T13:32:36.971Z,100250.31
2019-05-02T13:35:44.399Z,100247.65
2019-05-02T13:38:48.118Z,100245.78
2019-05-02T13:41:52.321Z,100244.22
2019-05-02T13:45:02.297Z,100235.52
2019-05-02T13:48:06.643Z,100230.98
2019-05-02T13:51:11.862Z,100223.80
2019-05-02T13:54:15.775Z,100229.69
2019-05-02T13:57:21.656Z,100221.20
2019-05-02T14:00:31.933Z,100215.80
2019-05-02T14:03:35.694Z,100224.11
2019-05-02T14:06:39.471Z,100219.50
2019-05-02T14:09:58.253Z,100217.08
2019-05-02T14:12:59.943Z,100208.07
2019-05-02T14:16:03.730Z,100210.23
2019-05-02T14:19:07.703Z,100200.76
2019-05-02T14:22:12.893Z,100185.79
2019-05-02T14:25:16.926Z,100184.64
2019-05-02T14:28:22.429Z,100182.53
2019-05-02T14:31:26.325Z,100185.75
2019-05-02T14:34:55.147Z,100187.22
2019-05-02T14:38:08.995Z,100175.26
2019-05-02T14:41:23.050Z,100182.30
2019-05-02T14:44:36.253Z,100185.16
2019-05-02T14:47:32.577Z,100187.53
2019-05-02T14:50:41.884Z,100191.39
2019-05-02T14:53:42.990Z,100179.78
2019-05-02T14:57:07.295Z,100179.20
2019-05-02T15:00:11.471Z,100169.13
2019-05-02T15:03:19.176Z,100157.15
2019-05-02T15:06:20.881Z,100168.65
2019-05-02T15:09:26.762Z,100157.80
2019-05-02T15:12:30.048Z,100163.12
2019-05-02T15:15:40.702Z,100170.13
2019-05-02T15:18:39.205Z,100149.12
2019-05-02T15:21:47.145Z,100167.62
2019-05-02T15:24:48.688Z,100159.37
2019-05-02T15:27:58.166Z,100151.34
2019-05-02T15:31:11.903Z,100151.92
2019-05-02T15:34:46.294Z,100146.61
2019-05-02T15:37:43.278Z,100141.87
2019-05-02T15:40:50.589Z,100139.80
2019-05-02T15:43:52.503Z,100140.75
2019-05-02T15:46:58.444Z,100134.20
2019-05-02T15:50:03.018Z,100133.55
2019-05-02T15:53:16.297Z,100142.67
2019-05-02T15:56:22.187Z,100139.05
2019-05-02T15:59:37.469Z,100137.93
2019-05-02T16:02:38.970Z,100137.18
2019-05-02T16:05:45.090Z,100136.97
2019-05-02T16:08:48.181Z,100131.38
2019-05-02T16:11:53.214Z,100130.34
2019-05-02T16:14:57.679Z,100134.31
2019-05-02T16:18:05.094Z,100139.16
2019-05-02T16:21:11.948Z,100143.84
2019-05-02T16:24:23.289Z,100150.43
2019-05-02T16:27:46.619Z,100163.50
2019-05-02T16:30:52.637Z,100166.98
2019-05-02T16:33:57.525Z,100175.06
2019-05-02T16:37:13.509Z,100195.22
2019-05-02T16:40:23.933Z,100200.83
2019-05-02T16:43:26.612Z,100206.64
2019-05-02T16:46:32.275Z,100214.84
2019-05-02T16:49:36.463Z,100220.95
2019-05-02T16:52:43.773Z,100230.39
2019-05-02T16:55:45.730Z,100233.45
2019-05-02T16:58:49.530Z,100227.58
2019-05-02T17:01:54.596Z,100232.11
2019-05-02T17:05:00.284Z,100228.41
2019-05-02T17:08:29.609Z,100234.63
2019-05-02T17:11:36.635Z,100240.22
2019-05-02T17:14:43.519Z,100245.23
2019-05-02T17:17:47.692Z,100254.63
2019-05-02T17:20:53.422Z,100243.56
2019-05-02T17:23:57.246Z,100259.59
2019-05-02T17:27:02.541Z,100254.14
2019-05-02T17:30:06.965Z,100254.85
2019-05-02T17:33:14.263Z,100247.84
2019-05-02T17:36:16.102Z,100256.64
2019-05-02T17:39:19.907Z,100241.59
2019-05-02T17:42:25.794Z,100248.59
2019-05-02T17:45:33.305Z,100251.98
2019-05-02T17:48:36.675Z,100246.77
2019-05-02T17:52:05.687Z,100247.25
2019-05-02T17:55:08.757Z,100247.90
2019-05-02T17:58:14.151Z,100250.41
2019-05-02T18:01:26.520Z,100262.09
2019-05-02T18:04:28.233Z,100258.63
2019-05-02T18:07:36.094Z,100262.22
2019-05-02T18:10:37.535Z,100257.36
2019-05-02T18:13:42.320Z,100257.05
2019-05-02T18:16:47.116Z,100256.50
2019-05-02T18:19:52.122Z,100254.55
2019-05-02T18:22:56.002Z,100248.41
2019-05-02T18:26:04.504Z,100263.39
2019-05-02T18:29:06.858Z,100260.49
2019-05-02T18:32:12.662Z,100256.22
2019-05-02T18:35:16.634Z,100262.47
2019-05-02T18:38:21.117Z,100268.23
2019-05-02T18:41:26.269Z,100272.72
2019-05-02T18:44:29.987Z,100269.27
2019-05-02T18:47:33.711Z,100271.66
2019-05-02T18:50:46.383Z,100287.50
2019-05-02T18:53:47.386Z,100282.59
2019-05-02T18:56:55.426Z,100294.67
2019-05-02T18:59:58.199Z,100293.89
2019-05-02T19:03:02.886Z,100302.76
2019-05-02T19:06:06.709Z,100301.05
2019-05-02T19:09:12.718Z,100306.29
2019-05-02T19:12:22.551Z,100304.38
2019-05-02T19:15:22.404Z,100311.91
2019-05-02T19:18:26.137Z,100324.02
2019-05-02T19:21:32.013Z,100313.42
2019-05-02T19:24:36.598Z,100318.77
2019-05-02T19:27:59.204Z,100318.24
2019-05-02T19:31:06.883Z,100313.16
2019-05-02T19:34:09.221Z,100316.73
2019-05-02T19:37:12.939Z,100323.44
2019-05-02T19:40:24.392Z,100321.58
2019-05-02T19:43:25.446Z,100320.38
2019-05-02T19:46:34.626Z,100323.05
2019-05-02T19:49:35.011Z,100320.25
2019-05-02T19:52:40.518Z,100323.74
2019-05-02T19:55:44.681Z,100321.63
2019-05-02T19:58:48.534Z,100321.97
2019-05-02T20:01:52.379Z,100318.41
2019-05-02T20:04:56.132Z,100332.88
2019-05-02T20:08:00.001Z,100334.27
2019-05-02T20:11:03.908Z,100336.79
2019-05-02T20:14:09.677Z,100336.79
2019-05-02T20:17:19.967Z,100331.87
2019-05-02T20:21:04.331Z,100334.19
2019-05-02T20:24:09.101Z,100339.67
2019-05-02T20:27:13.543Z,100340.62
2019-05-02T20:30:17.608Z,100340.70
2019-05-02T20:33:22.196Z,100339.38
2019-05-02T20:36:26.091Z,100341.64
2019-05-02T20:39:31.662Z,100348.03
2019-05-02T20:42:35.386Z,100355.26
2019-05-02T20:45:39.799Z,100351.29
2019-05-02T20:48:43.502Z,100369.59
2019-05-02T20:51:47.469Z,100366.44
2019-05-02T20:54:52.390Z,100372.19
2019-05-02T20:57:56.300Z,100371.86
2019-05-02T21:01:06.245Z,100378.19
2019-05-02T21:04:05.755Z,100364.80
2019-05-02T21:07:19.775Z,100378.19
2019-05-02T21:10:36.015Z,100379.34
2019-05-02T21:13:41.719Z,100379.84
2019-05-02T21:16:45.618Z,100388.99
2019-05-02T21:19:49.651Z,100387.39
2019-05-02T21:22:53.410Z,100393.84
2019-05-02T21:25:57.536Z,100389.69
2019-05-02T21:29:01.274Z,100396.45
2019-05-02T21:32:05.851Z,100398.72
2019-05-02T21:35:11.778Z,100399.59
2019-05-02T21:38:15.470Z,100401.40
2019-05-02T21:41:19.627Z,100403.14
2019-05-02T21:44:23.347Z,100407.23
2019-05-02T21:47:27.424Z,100403.48
2019-05-02T21:50:56.260Z,100414.55
2019-05-02T21:54:28.380Z,100416.42
2019-05-02T21:57:32.327Z,100411.81
2019-05-02T22:01:02.042Z,100413.84
2019-05-02T22:04:06.026Z,100419.03
2019-05-02T22:07:12.055Z,100417.95
2019-05-02T22:10:15.401Z,100414.95
2019-05-02T22:13:19.187Z,100419.98
2019-05-02T22:16:22.919Z,100424.35
2019-05-02T22:19:26.621Z,100421.45
2019-05-02T22:22:31.753Z,100421.92
2019-05-02T22:25:36.012Z,100423.49
2019-05-02T22:28:39.731Z,100431.05
2019-05-02T22:31:43.802Z,100419.59
2019-05-02T22:34:47.571Z,100422.59
2019-05-02T22:37:53.007Z,100424.36
2019-05-02T22:40:58.136Z,100433.59
2019-05-02T22:44:02.045Z,100434.31
2019-05-02T22:47:05.927Z,100429.73
2019-05-02T22:50:13.925Z,100434.84
2019-05-02T22:53:16.798Z,100437.86
2019-05-02T22:56:22.241Z,100429.73
2019-05-02T22:59:26.007Z,100434.41
2019-05-02T23:02:30.000Z,100431.77
2019-05-02T23:05:34.407Z,100426.89
2019-05-02T23:08:38.200Z,100436.83
2019-05-02T23:11:42.741Z,100441.27
2019-05-02T23:14:46.850Z,100445.03
2019-05-02T23:17:52.279Z,100440.02
2019-05-02T23:20:56.144Z,100441.33
2019-05-02T23:24:01.739Z,100442.65
2019-05-02T23:27:27.455Z,100442.30
2019-05-02T23:30:31.859Z,100442.17
2019-05-02T23:33:54.630Z,100444.27
2019-05-02T23:36:58.498Z,100445.55
2019-05-02T23:40:02.289Z,100444.10
2019-05-02T23:43:06.022Z,100446.63
2019-05-02T23:46:11.604Z,100443.31
2019-05-02T23:49:15.216Z,100452.06
2019-05-02T23:52:19.405Z,100444.50
2019-05-02T23:55:23.752Z,100437.04
2019-05-02T23:58:27.788Z,100448.52
